Time;durP1;ratioP1;P1;durP2;ratioP2;P2;SDS_P1;SDS_P2;PMS_P1;PMS_P2;Temp;Humidity;BMP_temperature;BMP_pressure;BME280_temperature;BME280_humidity;BME280_pressure;Samples;Min_cycle;Max_cycle;Signal;HPM_P1;HPM_P2
2023/04/23 00:00:11;;;;;;;4.07;3.30;;;13.00;99.90;;;;;;5096692;28;20256;-82
2023/04/23 00:02:37;;;;;;;3.23;2.93;;;13.10;99.90;;;;;;5095928;28;20169;-80
2023/04/23 00:05:05;;;;;;;3.50;3.13;;;13.10;99.90;;;;;;5097462;28;20539;-80
2023/04/23 00:07:32;;;;;;;4.50;3.50;;;13.10;99.90;;;;;;5094991;28;20168;-80
2023/04/23 00:10:00;;;;;;;3.60;3.30;;;13.10;99.90;;;;;;5096355;28;20686;-80
2023/04/23 00:12:29;;;;;;;5.00;3.60;;;13.10;99.90;;;;;;5095220;28;20700;-82
2023/04/23 00:14:55;;;;;;;3.40;3.10;;;13.10;99.90;;;;;;5095680;28;20165;-80
2023/04/23 00:17:20;;;;;;;4.37;3.10;;;13.10;99.90;;;;;;5095187;28;20260;-80
2023/04/23 00:19:46;;;;;;;5.13;3.20;;;13.10;99.90;;;;;;5096279;28;20196;-80
2023/04/23 00:22:13;;;;;;;4.10;3.50;;;13.10;99.90;;;;;;5100027;28;20183;-80
2023/04/23 00:24:39;;;;;;;4.27;3.23;;;13.00;99.90;;;;;;5099416;28;20177;-80
2023/04/23 00:27:05;;;;;;;4.70;3.30;;;13.10;99.90;;;;;;5099493;28;20243;-80
2023/04/23 00:29:31;;;;;;;4.83;3.60;;;13.10;99.90;;;;;;5100414;28;20208;-80
2023/04/23 00:31:57;;;;;;;4.13;3.50;;;13.00;99.90;;;;;;5098497;28;20204;-80
2023/04/23 00:34:22;;;;;;;4.87;3.80;;;12.90;99.90;;;;;;5098841;28;20195;-81
2023/04/23 00:36:48;;;;;;;4.07;3.67;;;12.80;99.90;;;;;;5100354;28;20256;-80
2023/04/23 00:39:14;;;;;;;5.13;3.57;;;12.70;99.90;;;;;;5099014;28;20325;-80
2023/04/23 00:41:40;;;;;;;4.87;3.77;;;12.70;99.90;;;;;;5100432;28;20180;-80
2023/04/23 00:44:06;;;;;;;4.47;3.50;;;12.70;99.90;;;;;;5100041;28;20176;-80
2023/04/23 00:46:32;;;;;;;6.97;3.67;;;12.70;99.90;;;;;;5098977;28;20554;-80
2023/04/23 00:48:59;;;;;;;4.63;3.90;;;12.70;99.90;;;;;;5099969;28;20208;-80
2023/04/23 00:51:25;;;;;;;4.00;3.60;;;12.60;99.90;;;;;;5081539;28;20200;-80
2023/04/23 00:53:51;;;;;;;5.13;3.90;;;12.60;99.90;;;;;;5081905;28;20645;-80
2023/04/23 00:56:16;;;;;;;4.83;3.93;;;12.50;99.90;;;;;;5081849;28;20180;-80
2023/04/23 00:58:42;;;;;;;3.80;3.07;;;12.50;99.90;;;;;;5081757;28;20173;-80
2023/04/23 01:01:08;;;;;;;4.87;3.63;;;12.50;99.90;;;;;;5099629;28;20215;-80
2023/04/23 01:03:37;;;;;;;4.80;3.73;;;12.50;99.90;;;;;;5081140;28;20266;-80
2023/04/23 01:06:03;;;;;;;4.27;3.43;;;12.50;99.90;;;;;;5098704;28;20663;-80
2023/04/23 01:08:31;;;;;;;3.80;3.40;;;12.60;99.90;;;;;;5099375;28;20180;-80
2023/04/23 01:10:57;;;;;;;4.33;3.30;;;12.60;99.90;;;;;;5098678;28;20545;-80
2023/04/23 01:13:28;;;;;;;4.60;3.50;;;12.60;99.90;;;;;;5081495;28;20626;-80
2023/04/23 01:15:54;;;;;;;4.97;3.50;;;12.70;99.90;;;;;;5098712;28;20181;-80
2023/04/23 01:18:20;;;;;;;3.70;3.40;;;12.70;99.90;;;;;;5099788;28;20225;-81
2023/04/23 01:20:45;;;;;;;4.30;3.90;;;12.70;99.90;;;;;;5080851;28;20587;-79
2023/04/23 01:23:11;;;;;;;3.37;3.03;;;12.60;99.90;;;;;;5081202;28;20658;-80
2023/04/23 01:25:37;;;;;;;4.37;3.97;;;12.60;99.90;;;;;;5081378;28;20274;-80
2023/04/23 01:28:05;;;;;;;4.10;3.70;;;12.50;99.90;;;;;;5099509;28;20190;-80
2023/04/23 01:30:32;;;;;;;4.17;3.60;;;12.50;99.90;;;;;;5080614;28;20232;-80
2023/04/23 01:32:58;;;;;;;4.00;3.60;;;12.50;99.90;;;;;;5099529;28;20185;-80
2023/04/23 01:35:24;;;;;;;4.30;3.90;;;12.50;99.90;;;;;;5080966;28;20181;-80
2023/04/23 01:37:51;;;;;;;3.97;3.67;;;12.50;99.90;;;;;;5098635;28;20255;-80
2023/04/23 01:40:17;;;;;;;3.80;3.40;;;12.50;99.90;;;;;;5098708;28;20284;-82
2023/04/23 01:42:43;;;;;;;5.47;3.60;;;12.40;99.90;;;;;;5098498;28;20267;-80
2023/04/23 01:45:09;;;;;;;3.87;3.30;;;12.30;99.90;;;;;;5079779;28;20218;-80
2023/04/23 01:47:35;;;;;;;3.50;3.20;;;12.20;99.90;;;;;;5080935;28;20318;-80
2023/04/23 01:50:00;;;;;;;4.67;3.33;;;12.20;99.90;;;;;;5090037;28;20212;-80
2023/04/23 01:52:26;;;;;;;3.30;3.00;;;12.20;99.90;;;;;;5098494;28;20175;-80
2023/04/23 01:54:52;;;;;;;3.70;3.33;;;12.20;99.90;;;;;;5098728;28;20216;-80
2023/04/23 01:57:23;;;;;;;3.37;3.07;;;12.20;99.90;;;;;;5099148;28;20235;-82
2023/04/23 02:00:00;;;;;;;3.50;3.20;;;12.30;99.90;;;;;;5098302;28;20225;-80
2023/04/23 02:02:25;;;;;;;3.90;3.50;;;12.20;99.90;;;;;;5098806;28;20172;-80
2023/04/23 02:04:52;;;;;;;3.80;3.40;;;12.20;99.90;;;;;;5098406;28;20183;-80
2023/04/23 02:07:18;;;;;;;4.03;3.30;;;12.20;99.90;;;;;;5096065;28;20215;-80
2023/04/23 02:09:44;;;;;;;4.00;3.50;;;12.20;99.90;;;;;;5097374;28;20198;-80
2023/04/23 02:12:10;;;;;;;4.23;3.10;;;12.20;99.90;;;;;;5097214;28;20235;-81
2023/04/23 02:14:35;;;;;;;4.47;3.77;;;12.10;99.90;;;;;;5097964;28;20208;-80
2023/04/23 02:17:02;;;;;;;4.37;3.43;;;12.10;99.90;;;;;;5096901;28;20178;-79
2023/04/23 02:19:29;;;;;;;5.03;3.70;;;12.20;99.90;;;;;;5097998;28;20207;-79
2023/04/23 02:21:55;;;;;;;4.20;3.80;;;12.20;99.90;;;;;;5097672;28;20187;-79
2023/04/23 02:24:21;;;;;;;4.20;3.80;;;12.10;99.90;;;;;;5097768;28;20188;-80
2023/04/23 02:26:47;;;;;;;5.03;3.70;;;12.10;99.90;;;;;;5096528;28;20235;-80
2023/04/23 02:29:13;;;;;;;4.03;3.63;;;12.10;99.90;;;;;;5096742;28;20210;-80
2023/04/23 02:31:39;;;;;;;5.03;4.03;;;12.10;99.90;;;;;;5097391;28;20230;-79
2023/04/23 02:34:05;;;;;;;4.47;4.03;;;12.10;99.90;;;;;;5096631;28;20176;-80
2023/04/23 02:36:31;;;;;;;4.80;4.10;;;12.10;99.90;;;;;;5096744;28;20642;-80
2023/04/23 02:38:56;;;;;;;4.53;4.13;;;12.20;99.90;;;;;;5096561;28;20676;-79
2023/04/23 02:41:22;;;;;;;5.40;4.20;;;12.10;99.90;;;;;;5096478;28;20176;-80
2023/04/23 02:43:47;;;;;;;8.77;4.00;;;12.00;99.90;;;;;;5096912;28;20684;-79
2023/04/23 02:46:13;;;;;;;4.73;4.23;;;12.00;99.90;;;;;;5095859;28;20557;-80
2023/04/23 02:48:40;;;;;;;4.53;4.13;;;12.00;99.90;;;;;;5096913;28;20171;-79
2023/04/23 02:51:08;;;;;;;5.87;4.20;;;12.00;99.90;;;;;;5079655;28;20193;-79
2023/04/23 02:53:34;;;;;;;4.83;4.43;;;12.00;99.90;;;;;;5097398;28;20177;-79
2023/04/23 02:56:00;;;;;;;5.30;4.60;;;12.10;99.90;;;;;;5079545;28;20168;-79
2023/04/23 02:58:26;;;;;;;5.40;4.90;;;12.00;99.90;;;;;;5078962;28;20173;-79
2023/04/23 03:00:51;;;;;;;5.63;4.60;;;12.00;99.90;;;;;;5079220;28;20191;-80
2023/04/23 03:03:17;;;;;;;5.07;4.47;;;12.00;99.90;;;;;;5097521;28;20173;-80
2023/04/23 03:05:42;;;;;;;5.20;4.70;;;12.00;99.90;;;;;;5079097;28;20180;-80
2023/04/23 03:08:08;;;;;;;4.67;4.27;;;12.00;99.90;;;;;;5097450;28;20715;-80
2023/04/23 03:10:34;;;;;;;5.20;4.70;;;12.00;99.90;;;;;;5078925;28;20682;-79
2023/04/23 03:12:59;;;;;;;5.17;4.67;;;12.00;99.90;;;;;;5079492;28;20173;-80
2023/04/23 03:15:26;;;;;;;4.97;4.40;;;12.00;99.90;;;;;;5078694;28;20253;-79
2023/04/23 03:17:52;;;;;;;4.63;4.03;;;12.00;99.90;;;;;;5078849;28;20176;-80
2023/04/23 03:20:19;;;;;;;5.03;4.23;;;12.00;99.90;;;;;;5078516;28;20196;-80
2023/04/23 03:22:44;;;;;;;4.33;3.93;;;12.00;99.90;;;;;;5078530;28;20275;-79
2023/04/23 03:25:11;;;;;;;4.60;3.77;;;12.00;99.90;;;;;;5079472;28;20209;-80
2023/04/23 03:27:39;;;;;;;4.80;4.40;;;12.00;99.90;;;;;;5096318;28;20183;-79
2023/04/23 03:30:07;;;;;;;4.63;4.13;;;11.90;99.90;;;;;;5078438;28;20192;-80
2023/04/23 03:32:33;;;;;;;4.30;3.90;;;11.90;99.90;;;;;;5096845;28;20173;-79
2023/04/23 03:34:59;;;;;;;4.30;3.90;;;11.90;99.90;;;;;;5097063;28;20218;-80
2023/04/23 03:37:25;;;;;;;3.93;3.57;;;12.00;99.90;;;;;;5096891;28;20210;-80
2023/04/23 03:39:51;;;;;;;3.97;3.60;;;12.00;99.90;;;;;;5078643;28;20189;-80
2023/04/23 03:42:17;;;;;;;3.50;3.10;;;12.00;99.90;;;;;;5078403;28;20340;-80
2023/04/23 03:44:42;;;;;;;3.70;3.40;;;12.00;99.90;;;;;;5078683;28;20176;-80
2023/04/23 03:47:08;;;;;;;3.80;3.23;;;12.00;99.90;;;;;;5096748;28;20187;-82
2023/04/23 03:49:33;;;;;;;3.47;3.17;;;12.00;99.90;;;;;;5083781;28;20211;-80
2023/04/23 03:51:59;;;;;;;3.60;3.30;;;12.00;99.90;;;;;;5095203;28;20204;-80
2023/04/23 03:54:25;;;;;;;3.43;3.03;;;12.00;99.90;;;;;;5095566;28;20263;-80
2023/04/23 03:56:51;;;;;;;3.40;3.10;;;11.90;99.90;;;;;;5101182;28;20171;-80
2023/04/23 03:59:16;;;;;;;3.33;3.03;;;11.80;99.90;;;;;;5099525;28;20192;-81
2023/04/23 04:01:42;;;;;;;3.93;2.97;;;11.80;99.90;;;;;;5099472;28;20633;-80
2023/04/23 04:04:08;;;;;;;3.13;2.80;;;11.80;99.90;;;;;;5099786;28;20229;-80
2023/04/23 04:06:33;;;;;;;3.10;2.80;;;11.80;99.90;;;;;;5099031;28;20180;-80
2023/04/23 04:08:59;;;;;;;3.17;2.93;;;11.70;99.90;;;;;;5099307;28;20222;-81
2023/04/23 04:11:25;;;;;;;3.17;2.87;;;11.70;99.90;;;;;;5099333;28;20192;-80
2023/04/23 04:13:51;;;;;;;3.23;2.90;;;11.80;99.90;;;;;;5099936;28;20196;-82
2023/04/23 04:16:16;;;;;;;3.97;2.77;;;11.70;99.90;;;;;;5100434;28;20179;-80
2023/04/23 04:18:42;;;;;;;3.23;2.70;;;11.80;99.90;;;;;;5100839;28;20194;-80
2023/04/23 04:21:07;;;;;;;3.20;2.90;;;11.80;99.90;;;;;;5100583;28;20214;-80
2023/04/23 04:23:33;;;;;;;3.03;2.83;;;11.80;99.90;;;;;;5100678;28;20207;-81
2023/04/23 04:25:59;;;;;;;3.10;2.80;;;11.70;99.90;;;;;;5100448;28;20186;-80
2023/04/23 04:28:25;;;;;;;3.03;2.73;;;11.70;99.90;;;;;;5100033;28;20262;-80
2023/04/23 04:30:52;;;;;;;3.20;2.90;;;11.80;99.90;;;;;;5099659;28;20199;-80
2023/04/23 04:33:19;;;;;;;3.30;3.00;;;11.70;99.90;;;;;;5100152;28;20270;-80
2023/04/23 04:35:47;;;;;;;3.33;3.03;;;11.70;99.90;;;;;;5099166;28;20164;-80
2023/04/23 04:38:13;;;;;;;4.07;3.30;;;11.70;99.90;;;;;;5100245;28;20183;-80
2023/04/23 04:40:39;;;;;;;3.43;3.10;;;11.60;99.90;;;;;;5098515;28;20192;-80
2023/04/23 04:43:05;;;;;;;4.00;3.00;;;11.60;99.90;;;;;;5099805;28;20665;-80
2023/04/23 04:45:31;;;;;;;3.60;3.10;;;11.60;99.90;;;;;;5098732;28;20198;-80
2023/04/23 04:47:56;;;;;;;3.03;2.73;;;11.60;99.90;;;;;;5098810;28;20173;-80
2023/04/23 04:50:23;;;;;;;3.30;3.00;;;11.60;99.90;;;;;;5100736;28;20314;-80
2023/04/23 04:52:48;;;;;;;3.10;2.80;;;11.50;99.90;;;;;;5081948;28;20222;-80
2023/04/23 04:55:14;;;;;;;3.20;2.90;;;11.40;99.90;;;;;;5081732;28;20172;-80
2023/04/23 04:57:40;;;;;;;3.63;3.33;;;11.30;99.90;;;;;;5081147;28;20180;-80
2023/04/23 05:00:27;;;;;;;3.43;3.10;;;11.30;99.90;;;;;;5099615;28;20188;-80
2023/04/23 05:02:53;;;;;;;3.97;3.57;;;11.30;99.90;;;;;;5081564;28;20168;-80
2023/04/23 05:05:20;;;;;;;3.60;3.30;;;11.40;99.90;;;;;;5096388;28;20183;-83
2023/04/23 05:07:46;;;;;;;3.70;3.23;;;11.40;99.90;;;;;;5077085;28;20168;-83
2023/04/23 05:10:13;;;;;;;4.20;3.30;;;11.40;99.90;;;;;;5076558;28;20188;-84
2023/04/23 05:12:41;;;;;;;3.70;3.23;;;11.30;99.90;;;;;;5077241;28;20237;-82
2023/04/23 05:15:09;;;;;;;4.00;3.60;;;11.30;99.90;;;;;;5094950;28;20172;-84
2023/04/23 05:17:34;;;;;;;4.37;3.40;;;11.30;99.90;;;;;;5094892;28;20704;-83
2023/04/23 05:20:00;;;;;;;4.20;3.80;;;11.40;99.90;;;;;;5076398;28;20188;-83
2023/04/23 05:22:26;;;;;;;4.10;3.70;;;11.40;99.90;;;;;;5076945;28;20267;-83
2023/04/23 05:24:51;;;;;;;3.83;3.43;;;11.30;99.90;;;;;;5076984;28;20283;-84
2023/04/23 05:27:17;;;;;;;4.30;3.90;;;11.40;99.90;;;;;;5095283;28;20168;-83
2023/04/23 05:29:43;;;;;;;4.90;4.20;;;11.30;99.90;;;;;;5076708;28;20196;-84
2023/04/23 05:32:08;;;;;;;5.47;4.50;;;11.30;99.90;;;;;;5094563;28;20207;-83
2023/04/23 05:34:34;;;;;;;6.60;5.00;;;11.30;99.90;;;;;;5094894;28;20168;-83
2023/04/23 05:37:00;;;;;;;7.40;5.70;;;11.20;99.90;;;;;;5095486;28;20720;-83
2023/04/23 05:39:26;;;;;;;5.43;4.90;;;11.20;99.90;;;;;;5077107;28;20283;-83
2023/04/23 05:41:52;;;;;;;5.63;4.83;;;11.10;99.90;;;;;;5094396;28;20196;-84
2023/04/23 05:44:17;;;;;;;5.23;4.63;;;11.20;99.90;;;;;;5094797;28;20233;-84
2023/04/23 05:46:43;;;;;;;5.73;4.90;;;11.20;99.90;;;;;;5094423;28;20222;-85
2023/04/23 05:49:08;;;;;;;5.70;5.10;;;11.20;99.90;;;;;;5077467;28;20242;-83
2023/04/23 05:51:34;;;;;;;6.27;4.83;;;11.30;99.90;;;;;;5091225;28;20682;-83
2023/04/23 05:53:59;;;;;;;6.33;5.60;;;11.30;99.90;;;;;;5092906;28;20178;-84
2023/04/23 05:56:25;;;;;;;5.63;5.03;;;11.30;99.90;;;;;;5092668;28;20243;-84
2023/04/23 05:58:51;;;;;;;5.90;5.30;;;11.30;99.90;;;;;;5094148;28;20219;-85
2023/04/23 06:01:16;;;;;;;6.53;5.40;;;11.20;99.90;;;;;;5092375;28;20181;-85
2023/04/23 06:03:44;;;;;;;6.60;5.90;;;11.20;99.90;;;;;;5092474;28;20179;-86
2023/04/23 06:06:11;;;;;;;6.10;5.50;;;11.20;99.90;;;;;;5092346;28;20193;-86
2023/04/23 06:08:37;;;;;;;8.33;5.70;;;11.20;99.90;;;;;;5093674;28;20185;-85
2023/04/23 06:11:03;;;;;;;6.80;5.90;;;11.20;99.90;;;;;;5093348;28;20198;-87
2023/04/23 06:13:29;;;;;;;6.50;5.70;;;11.20;99.90;;;;;;5093482;28;20176;-86
2023/04/23 06:15:55;;;;;;;7.53;6.00;;;11.20;99.90;;;;;;5093394;28;20169;-86
2023/04/23 06:18:21;;;;;;;7.83;6.00;;;11.20;99.90;;;;;;5091068;28;20525;-84
2023/04/23 06:20:47;;;;;;;7.57;6.43;;;11.20;99.90;;;;;;5092085;28;20227;-85
2023/04/23 06:23:13;;;;;;;7.70;6.20;;;11.20;99.90;;;;;;5092285;28;20194;-85
2023/04/23 06:25:39;;;;;;;7.70;6.90;;;11.20;99.90;;;;;;5092160;28;20169;-85
2023/04/23 06:28:05;;;;;;;8.43;7.17;;;11.20;99.90;;;;;;5092147;28;20180;-85
2023/04/23 06:30:31;;;;;;;7.80;7.00;;;11.30;99.90;;;;;;5091816;28;20257;-84
2023/04/23 06:32:56;;;;;;;8.50;7.60;;;11.40;99.90;;;;;;5093488;28;20236;-85
2023/04/23 06:35:22;;;;;;;8.27;7.30;;;11.60;99.90;;;;;;5092219;28;20178;-86
2023/04/23 06:37:47;;;;;;;9.10;7.63;;;11.70;99.90;;;;;;5093218;28;20275;-86
2023/04/23 06:40:13;;;;;;;8.27;6.97;;;11.90;99.90;;;;;;5091507;28;20267;-84
2023/04/23 06:42:39;;;;;;;9.07;7.30;;;11.90;99.90;;;;;;5092999;28;20194;-85
2023/04/23 06:45:05;;;;;;;8.47;7.27;;;12.00;99.90;;;;;;5091801;28;20165;-91
2023/04/23 06:47:31;;;;;;;7.07;6.37;;;12.10;99.90;;;;;;5091693;28;20187;-91
2023/04/23 06:49:58;;;;;;;7.83;7.03;;;12.20;99.90;;;;;;5091767;28;20200;-89
2023/04/23 06:52:24;;;;;;;7.70;6.73;;;12.20;99.90;;;;;;5091957;28;20582;-90
2023/04/23 06:54:50;;;;;;;8.57;6.83;;;12.20;99.90;;;;;;5091476;28;20647;-88
2023/04/23 06:57:16;;;;;;;8.30;7.17;;;12.20;99.90;;;;;;5092840;28;20222;-90
2023/04/23 06:59:41;;;;;;;7.30;6.47;;;12.30;99.90;;;;;;5091262;28;20230;-91
2023/04/23 07:02:07;;;;;;;7.20;6.50;;;12.40;99.90;;;;;;5091680;28;20172;-90
2023/04/23 07:04:33;;;;;;;6.97;6.27;;;12.40;99.90;;;;;;5091665;28;20172;-90
2023/04/23 07:06:59;;;;;;;8.07;6.20;;;12.50;99.90;;;;;;5091456;28;20176;-90
2023/04/23 07:09:26;;;;;;;7.27;6.50;;;12.50;99.90;;;;;;5092556;28;20270;-90
2023/04/23 07:11:51;;;;;;;7.13;5.97;;;12.50;99.90;;;;;;5091146;28;20283;-90
2023/04/23 07:14:17;;;;;;;7.00;6.37;;;12.50;99.90;;;;;;5091445;28;20279;-90
2023/04/23 07:16:43;;;;;;;6.60;5.97;;;12.60;99.90;;;;;;5091282;28;20186;-89
2023/04/23 07:19:08;;;;;;;6.47;5.87;;;12.70;99.90;;;;;;5091134;28;20196;-90
2023/04/23 07:21:34;;;;;;;6.30;5.70;;;12.80;67.80;;;;;;5092409;28;20179;-90
2023/04/23 07:24:05;;;;;;;6.33;5.60;;;13.00;99.90;;;;;;5090978;28;20176;-90
2023/04/23 07:26:31;;;;;;;6.77;6.10;;;13.00;1.00;;;;;;5092399;28;20527;-91
2023/04/23 07:28:57;;;;;;;6.40;5.70;;;13.10;99.90;;;;;;5092020;28;20196;-90
2023/04/23 07:31:22;;;;;;;6.50;5.90;;;13.10;99.90;;;;;;5090750;28;20283;-90
2023/04/23 07:33:48;;;;;;;6.67;6.03;;;13.30;62.50;;;;;;5091361;28;20169;-90
2023/04/23 07:36:14;;;;;;;6.17;5.57;;;13.40;26.20;;;;;;5092420;28;20173;-90
2023/04/23 07:38:40;;;;;;;6.20;5.60;;;13.30;1.00;;;;;;5090782;28;20170;-89
2023/04/23 07:41:05;;;;;;;6.73;5.50;;;13.20;1.00;;;;;;5090789;28;20240;-89
2023/04/23 07:43:31;;;;;;;5.80;5.20;;;13.00;1.00;;;;;;5092252;28;20651;-89
2023/04/23 07:45:57;;;;;;;6.27;5.00;;;13.00;1.00;;;;;;5090794;28;20181;-90
2023/04/23 07:48:22;;;;;;;5.43;4.83;;;13.00;1.00;;;;;;5090921;28;20168;-89
2023/04/23 07:50:48;;;;;;;5.00;4.50;;;13.10;1.00;;;;;;5091960;28;20226;-90
2023/04/23 07:53:14;;;;;;;5.40;4.90;;;13.30;1.00;;;;;;5092236;28;20526;-90
2023/04/23 07:55:40;;;;;;;5.97;4.87;;;13.30;99.90;;;;;;5074181;28;20175;-90
2023/04/23 07:58:05;;;;;;;6.03;4.83;;;13.30;99.90;;;;;;5092218;28;20164;-90
2023/04/23 08:00:31;;;;;;;5.40;4.90;;;13.50;1.00;;;;;;5073900;28;20193;-90
2023/04/23 08:02:57;;;;;;;5.17;4.67;;;13.40;1.00;;;;;;5092225;28;20172;-90
2023/04/23 08:05:23;;;;;;;4.43;4.03;;;13.60;1.00;;;;;;5074193;28;20172;-90
2023/04/23 08:07:48;;;;;;;5.07;4.20;;;14.00;99.90;;;;;;5073816;28;20183;-89
2023/04/23 08:10:14;;;;;;;4.90;3.97;;;14.20;99.90;;;;;;5073533;28;20736;-89
2023/04/23 08:12:40;;;;;;;4.70;4.30;;;14.00;1.00;;;;;;5073894;28;20181;-89
2023/04/23 08:15:06;;;;;;;4.67;4.27;;;13.90;1.00;;;;;;5073877;28;20165;-89
2023/04/23 08:17:32;;;;;;;4.90;4.30;;;14.00;1.00;;;;;;5074501;28;20192;-82
2023/04/23 08:19:57;;;;;;;4.60;4.20;;;13.90;1.00;;;;;;5074017;28;20221;-82
2023/04/23 08:22:23;;;;;;;5.83;4.47;;;14.00;1.00;;;;;;5074240;28;20176;-82
2023/04/23 08:24:48;;;;;;;3.90;3.50;;;14.20;99.90;;;;;;5074069;28;20229;-81
2023/04/23 08:27:14;;;;;;;4.77;4.03;;;14.20;99.90;;;;;;5092516;28;20172;-81
2023/04/23 08:29:39;;;;;;;4.73;4.10;;;14.30;1.00;;;;;;5092329;28;20199;-82
2023/04/23 08:32:05;;;;;;;4.27;3.87;;;14.20;1.00;;;;;;5093054;28;20251;-81
2023/04/23 08:34:31;;;;;;;4.20;3.80;;;14.20;99.90;;;;;;5093088;28;20599;-81
2023/04/23 08:36:56;;;;;;;4.50;4.10;;;14.40;1.00;;;;;;5092614;28;20171;-82
2023/04/23 08:39:22;;;;;;;4.33;3.87;;;14.50;1.00;;;;;;5091901;28;20275;-79
2023/04/23 08:41:54;;;;;;;4.40;3.97;;;14.60;1.00;;;;;;5094101;28;20649;-81
2023/04/23 08:44:24;;;;;;;4.20;3.80;;;14.80;99.90;;;;;;5077744;28;20172;-81
2023/04/23 08:46:52;;;;;;;3.80;3.50;;;15.00;99.90;;;;;;5095394;28;20642;-82
2023/04/23 08:49:19;;;;;;;4.00;3.70;;;15.10;9.30;;;;;;5080996;28;20211;-81
2023/04/23 08:51:56;;;;;;;4.43;3.67;;;14.90;99.90;;;;;;5094035;28;20654;-81
2023/04/23 08:54:26;;;;;;;4.13;3.70;;;14.80;1.00;;;;;;5094655;28;20168;-81
2023/04/23 08:56:56;;;;;;;5.27;4.13;;;15.10;1.00;;;;;;5094928;28;20172;-81
2023/04/23 08:59:21;;;;;;;4.67;4.07;;;15.20;99.90;;;;;;5094405;28;20211;-80
2023/04/23 09:01:47;;;;;;;4.40;3.70;;;15.30;1.00;;;;;;5093703;28;20169;-81
2023/04/23 09:04:15;;;;;;;4.37;3.97;;;15.40;1.00;;;;;;5094076;28;20200;-81
2023/04/23 09:06:42;;;;;;;4.57;4.03;;;15.40;99.90;;;;;;5094309;28;20271;-81
2023/04/23 09:09:08;;;;;;;4.00;3.70;;;15.60;64.80;;;;;;5094543;28;20231;-80
2023/04/23 09:11:36;;;;;;;3.50;3.20;;;15.70;1.00;;;;;;5094187;28;20227;-80
2023/04/23 09:14:03;;;;;;;4.00;3.60;;;16.10;99.90;;;;;;5095572;28;20247;-81
2023/04/23 09:16:28;;;;;;;3.70;3.40;;;16.20;1.00;;;;;;5095393;28;20207;-80
2023/04/23 09:18:54;;;;;;;4.07;3.67;;;16.20;92.20;;;;;;5095317;28;20212;-81
2023/04/23 09:21:20;;;;;;;4.30;3.87;;;16.20;1.00;;;;;;5095494;28;20168;-81
2023/04/23 09:23:45;;;;;;;4.27;3.50;;;16.20;1.00;;;;;;5094036;28;20173;-80
2023/04/23 09:26:22;;;;;;;4.07;3.67;;;16.10;1.00;;;;;;5095117;28;20168;-82
2023/04/23 09:28:50;;;;;;;3.93;3.47;;;16.20;97.80;;;;;;5095261;28;20211;-81
2023/04/23 09:31:25;;;;;;;3.67;3.37;;;16.40;1.00;;;;;;5094089;28;20196;-80
2023/04/23 09:33:52;;;;;;;3.70;3.40;;;16.20;99.90;;;;;;5095068;28;20638;-80
2023/04/23 09:36:21;;;;;;;3.40;3.10;;;16.30;99.90;;;;;;5095559;28;20167;-79
2023/04/23 09:38:47;;;;;;;3.90;3.47;;;16.40;1.00;;;;;;5093884;28;20195;-80
2023/04/23 09:41:24;;;;;;;3.63;3.33;;;16.20;29.00;;;;;;5093666;28;20179;-80
2023/04/23 09:43:52;;;;;;;3.30;3.00;;;16.40;99.90;;;;;;5094234;28;20177;-80
2023/04/23 09:46:18;;;;;;;3.70;3.03;;;16.90;99.90;;;;;;5095127;28;20180;-81
2023/04/23 09:48:43;;;;;;;3.37;3.07;;;17.00;1.00;;;;;;5094720;28;20184;-84
2023/04/23 09:51:13;;;;;;;3.17;2.87;;;17.20;1.00;;;;;;5076680;28;20252;-83
2023/04/23 09:53:42;;;;;;;3.87;3.20;;;17.30;1.00;;;;;;5094561;28;20666;-82
2023/04/23 09:56:07;;;;;;;3.97;3.23;;;17.30;99.90;;;;;;5094420;28;20195;-81
2023/04/23 09:58:33;;;;;;;4.03;3.40;;;17.40;1.00;;;;;;5094207;28;20203;-81
2023/04/23 10:01:06;;;;;;;5.03;3.37;;;17.60;1.00;;;;;;5075865;28;20185;-82
2023/04/23 10:03:32;;;;;;;3.60;3.30;;;17.60;1.00;;;;;;5076303;28;20207;-81
2023/04/23 10:05:58;;;;;;;3.37;3.00;;;17.50;54.30;;;;;;5076497;28;20642;-81
2023/04/23 10:08:24;;;;;;;3.00;2.70;;;17.50;1.00;;;;;;5094172;28;20183;-81
2023/04/23 10:10:50;;;;;;;3.20;2.90;;;17.40;1.00;;;;;;5093936;28;20206;-80
2023/04/23 10:13:17;;;;;;;3.00;2.80;;;17.50;1.00;;;;;;5094582;28;20173;-81
2023/04/23 10:15:45;;;;;;;3.30;2.80;;;17.60;1.00;;;;;;5094819;28;20181;-80
2023/04/23 10:18:13;;;;;;;3.23;2.93;;;17.60;99.90;;;;;;5076769;28;20177;-82
2023/04/23 10:20:40;;;;;;;3.67;2.90;;;17.90;1.00;;;;;;5077176;28;20269;-81
2023/04/23 10:23:08;;;;;;;2.77;2.57;;;18.00;1.00;;;;;;5076992;28;20271;-82
2023/04/23 10:25:35;;;;;;;2.77;2.40;;;18.00;1.00;;;;;;5095013;28;20173;-81
2023/04/23 10:28:03;;;;;;;2.60;2.40;;;18.30;1.00;;;;;;5094927;28;20265;-81
2023/04/23 10:30:29;;;;;;;2.60;2.40;;;18.20;1.00;;;;;;5076692;28;20250;-81
2023/04/23 10:32:58;;;;;;;2.60;2.40;;;18.40;99.90;;;;;;5095396;28;20260;-82
2023/04/23 10:35:24;;;;;;;2.63;2.43;;;18.50;99.90;;;;;;5077027;28;20172;-81
2023/04/23 10:37:50;;;;;;;3.00;2.30;;;18.20;99.90;;;;;;5077772;28;20198;-81
2023/04/23 10:40:25;;;;;;;4.47;2.50;;;18.10;99.90;;;;;;5077009;28;20246;-81
2023/04/23 10:42:52;;;;;;;2.90;2.40;;;18.40;99.90;;;;;;5076022;28;20623;-81
2023/04/23 10:45:19;;;;;;;3.90;2.87;;;18.60;99.90;;;;;;5093554;28;20251;-81
2023/04/23 10:47:45;;;;;;;2.40;2.20;;;18.90;1.00;;;;;;5093613;28;20172;-81
2023/04/23 10:50:25;;;;;;;2.40;2.20;;;19.00;1.00;;;;;;5087291;28;20209;-81
2023/04/23 10:52:55;;;;;;;3.13;2.50;;;18.90;1.00;;;;;;5093108;28;20180;-81
2023/04/23 10:55:24;;;;;;;2.50;2.30;;;18.90;99.90;;;;;;5093441;28;20587;-82
2023/04/23 10:58:07;;;;;;;2.63;2.30;;;19.30;1.00;;;;;;5092210;28;20183;-81
2023/04/23 11:00:45;;;;;;;2.63;2.40;;;19.40;1.00;;;;;;5092236;28;20202;-81
2023/04/23 11:03:34;;;;;;;2.67;2.47;;;19.30;1.00;;;;;;5092675;28;20160;-81
2023/04/23 11:06:01;;;;;;;2.63;2.40;;;18.60;50.50;;;;;;5092186;28;20177;-81
2023/04/23 11:08:30;;;;;;;2.60;2.40;;;18.60;99.90;;;;;;5093189;28;20171;-81
2023/04/23 11:10:58;;;;;;;2.40;2.20;;;19.10;99.90;;;;;;5093089;28;20214;-81
2023/04/23 11:13:26;;;;;;;2.20;2.00;;;19.50;1.00;;;;;;5091976;28;20184;-81
2023/04/23 11:16:20;;;;;;;2.67;2.17;;;19.40;1.00;;;;;;5093299;28;20226;-83
2023/04/23 11:19:03;;;;;;;2.40;2.20;;;19.50;1.00;;;;;;5092292;28;20226;-79
2023/04/23 11:21:58;;;;;;;2.33;2.13;;;19.50;1.00;;;;;;5093041;28;20180;-81
2023/04/23 11:24:41;;;;;;;2.40;2.20;;;19.90;1.00;;;;;;5090308;28;20184;-81
2023/04/23 11:27:11;;;;;;;3.57;2.10;;;19.80;1.00;;;;;;5091479;28;20184;-81
2023/04/23 11:29:39;;;;;;;2.00;1.90;;;19.90;1.00;;;;;;5092828;28;20199;-81
2023/04/23 11:32:09;;;;;;;1.95;1.85;;;20.10;99.90;;;;;;5091303;28;20200;-81
2023/04/23 11:34:36;;;;;;;2.42;1.98;;;20.30;99.90;;;;;;5092975;28;20165;-82
2023/04/23 11:37:02;;;;;;;2.03;1.90;;;20.30;99.90;;;;;;5093248;28;20588;-81
2023/04/23 11:39:27;;;;;;;2.17;1.88;;;20.20;99.90;;;;;;5092747;28;20192;-83
2023/04/23 11:41:53;;;;;;;2.67;1.90;;;20.20;99.90;;;;;;5092608;28;20172;-82
2023/04/23 11:44:22;;;;;;;3.28;2.10;;;20.20;1.00;;;;;;5091578;28;20553;-82
2023/04/23 11:46:48;;;;;;;2.50;2.03;;;20.10;1.00;;;;;;5090359;28;20622;-80
2023/04/23 11:49:16;;;;;;;2.10;1.90;;;20.40;1.00;;;;;;5070907;28;20223;-81
2023/04/23 11:51:43;;;;;;;1.90;1.80;;;20.70;99.90;;;;;;5079061;28;20207;-83
2023/04/23 11:54:09;;;;;;;2.45;1.70;;;20.30;99.90;;;;;;5092872;28;20191;-82
2023/04/23 11:56:36;;;;;;;2.78;1.70;;;20.00;99.90;;;;;;5092723;28;20184;-81
2023/04/23 11:59:02;;;;;;;2.95;1.40;;;20.20;99.90;;;;;;5084483;28;20208;-82
2023/04/23 12:01:45;;;;;;;1.65;1.35;;;20.50;99.90;;;;;;5090570;28;20213;-82
2023/04/23 12:04:19;;;;;;;1.60;1.50;;;20.00;99.90;;;;;;5091419;28;20213;-82
2023/04/23 12:06:45;;;;;;;1.35;1.25;;;19.30;99.90;;;;;;5091515;28;20653;-82
2023/04/23 12:09:13;;;;;;;3.05;1.48;;;19.60;99.90;;;;;;5092810;28;20199;-82
2023/04/23 12:11:40;;;;;;;1.70;1.60;;;20.00;99.90;;;;;;5092509;28;20202;-83
2023/04/23 12:14:07;;;;;;;1.58;1.45;;;20.00;99.90;;;;;;5092627;28;20172;-83
2023/04/23 12:16:40;;;;;;;1.80;1.52;;;19.70;99.90;;;;;;5094046;28;20172;-83
2023/04/23 12:19:08;;;;;;;1.95;1.50;;;19.90;99.90;;;;;;5096460;28;20203;-82
2023/04/23 12:21:33;;;;;;;2.15;1.60;;;19.80;99.90;;;;;;5095876;28;20259;-83
2023/04/23 12:24:03;;;;;;;1.98;1.40;;;19.70;99.90;;;;;;5094985;28;20275;-83
2023/04/23 12:26:30;;;;;;;2.10;1.52;;;19.70;99.90;;;;;;5094995;28;20577;-83
2023/04/23 12:28:58;;;;;;;2.50;1.80;;;19.60;99.90;;;;;;5094980;28;20198;-82
2023/04/23 12:31:27;;;;;;;1.95;1.70;;;19.50;99.90;;;;;;5096866;28;20200;-82
2023/04/23 12:34:05;;;;;;;2.30;1.65;;;19.70;99.90;;;;;;5096999;28;20180;-82
2023/04/23 12:36:31;;;;;;;1.70;1.60;;;19.80;99.90;;;;;;5096533;28;20168;-83
2023/04/23 12:39:34;;;;;;;1.88;1.50;;;19.80;99.90;;;;;;5094725;28;20287;-82
2023/04/23 12:42:05;;;;;;;2.40;1.30;;;19.80;99.90;;;;;;5094339;28;20216;-82
2023/04/23 12:44:34;;;;;;;1.67;1.40;;;19.80;99.90;;;;;;5094520;28;20180;-82
2023/04/23 12:47:04;;;;;;;1.90;1.60;;;19.70;99.90;;;;;;5096085;28;20180;-82